Time;durP1;ratioP1;P1;durP2;ratioP2;P2;SDS_P1;SDS_P2;PMS_P1;PMS_P2;Temp;Humidity;BMP_temperature;BMP_pressure;BME280_temperature;BME280_humidity;BME280_pressure;Samples;Min_cycle;Max_cycle;Signal;HPM_P1;HPM_P2
2021/10/07 00:01:11;;;;;;;3.97;2.60;;;;;;;;;;5034227;28;20449;-60
2021/10/07 00:03:38;;;;;;;4.10;3.20;;;;;;;;;;5033571;28;20510;-60
2021/10/07 00:06:06;;;;;;;3.27;2.40;;;;;;;;;;5032995;28;20571;-60
2021/10/07 00:08:33;;;;;;;3.33;3.00;;;;;;;;;;5032998;28;20519;-60
2021/10/07 00:11:00;;;;;;;3.67;2.70;;;;;;;;;;5033305;28;20530;-60
2021/10/07 00:13:28;;;;;;;4.27;2.60;;;;;;;;;;5032900;28;20522;-60
2021/10/07 00:15:56;;;;;;;3.43;2.43;;;;;;;;;;5033025;28;20461;-60
2021/10/07 00:18:24;;;;;;;5.30;3.00;;;;;;;;;;5032947;28;20468;-60
2021/10/07 00:20:52;;;;;;;5.20;2.90;;;;;;;;;;5033234;28;20548;-60
2021/10/07 00:23:24;;;;;;;4.90;3.10;;;;;;;;;;5033243;28;20452;-60
2021/10/07 00:25:51;;;;;;;3.93;2.80;;;;;;;;;;5037412;28;20437;-60
2021/10/07 00:28:18;;;;;;;4.30;2.93;;;;;;;;;;5036884;28;20477;-60
2021/10/07 00:30:46;;;;;;;3.70;3.30;;;;;;;;;;5036894;28;20452;-60
2021/10/07 00:33:20;;;;;;;3.30;2.80;;;;;;;;;;5037391;28;20480;-60
2021/10/07 00:36:04;;;;;;;4.63;2.73;;;;;;;;;;5037104;28;20221;-60
2021/10/07 00:41:15;;;;;;;3.55;3.10;;;;;;;;;;5037059;28;20178;-60
2021/10/07 00:43:43;;;;;;;7.60;3.25;;;;;;;;;;5036749;28;20198;-60
2021/10/07 00:46:10;;;;;;;4.57;2.80;;;;;;;;;;5036844;28;20210;-60
2021/10/07 00:48:37;;;;;;;6.15;3.30;;;;;;;;;;5037879;28;20278;-59
2021/10/07 00:51:06;;;;;;;3.53;3.20;;;;;;;;;;5036802;28;20206;-60
2021/10/07 00:53:33;;;;;;;3.70;3.30;;;;;;;;;;5036348;28;20271;-60
2021/10/07 00:56:01;;;;;;;5.18;3.22;;;;;;;;;;5036781;28;20260;-60
2021/10/07 00:58:29;;;;;;;5.00;3.08;;;;;;;;;;5036309;28;20230;-60
2021/10/07 01:00:56;;;;;;;4.47;4.07;;;;;;;;;;5036687;28;20260;-60
2021/10/07 01:03:23;;;;;;;7.05;4.10;;;;;;;;;;5036603;28;20194;-60
2021/10/07 01:05:50;;;;;;;3.75;3.30;;;;;;;;;;5036267;28;20732;-60
2021/10/07 01:08:19;;;;;;;4.60;3.90;;;;;;;;;;5036663;28;20287;-60
2021/10/07 01:10:46;;;;;;;6.18;3.60;;;;;;;;;;5036923;28;20685;-60
2021/10/07 01:13:14;;;;;;;3.50;3.20;;;;;;;;;;5036361;28;20214;-60
2021/10/07 01:15:42;;;;;;;6.28;4.05;;;;;;;;;;5036069;28;20595;-60
2021/10/07 01:18:10;;;;;;;6.43;3.35;;;;;;;;;;5036214;28;20244;-60
2021/10/07 01:20:41;;;;;;;6.22;3.83;;;;;;;;;;5036311;28;20210;-60
2021/10/07 01:23:08;;;;;;;9.13;3.65;;;;;;;;;;5036277;28;20241;-60
2021/10/07 01:25:36;;;;;;;4.25;3.60;;;;;;;;;;5036174;28;20210;-60
2021/10/07 01:28:03;;;;;;;5.32;3.20;;;;;;;;;;5036311;28;20223;-60
2021/10/07 01:30:30;;;;;;;6.55;3.28;;;;;;;;;;5036126;28;20260;-60
2021/10/07 01:32:58;;;;;;;5.80;3.47;;;;;;;;;;5036278;28;20621;-60
2021/10/07 01:35:26;;;;;;;5.03;3.07;;;;;;;;;;5034948;28;20206;-60
2021/10/07 01:37:55;;;;;;;4.37;3.23;;;;;;;;;;5035603;28;20534;-60
2021/10/07 01:40:22;;;;;;;3.80;3.00;;;;;;;;;;5035912;28;20441;-61
2021/10/07 01:42:50;;;;;;;3.20;2.70;;;;;;;;;;5035834;28;20856;-59
2021/10/07 01:45:17;;;;;;;5.37;3.10;;;;;;;;;;5035832;28;20194;-60
2021/10/07 01:47:45;;;;;;;5.00;2.93;;;;;;;;;;5035350;28;21056;-61
2021/10/07 01:50:13;;;;;;;3.10;2.77;;;;;;;;;;5035465;28;20445;-60
2021/10/07 01:52:40;;;;;;;3.77;3.00;;;;;;;;;;5035686;28;20499;-60
2021/10/07 01:55:10;;;;;;;5.33;3.23;;;;;;;;;;5035591;28;20489;-60
2021/10/07 01:57:37;;;;;;;7.60;3.40;;;;;;;;;;5035519;28;20523;-60
2021/10/07 02:00:06;;;;;;;3.42;2.80;;;;;;;;;;5035296;28;20999;-60
2021/10/07 02:02:33;;;;;;;3.80;2.90;;;;;;;;;;5035267;28;20256;-60
2021/10/07 02:05:00;;;;;;;3.05;2.72;;;;;;;;;;5035213;28;20449;-60
2021/10/07 02:07:28;;;;;;;4.43;2.90;;;;;;;;;;5035455;28;20222;-60
2021/10/07 02:09:55;;;;;;;4.20;3.03;;;;;;;;;;5035254;28;20448;-60
2021/10/07 02:12:24;;;;;;;5.13;2.60;;;;;;;;;;5035427;28;20441;-60
2021/10/07 02:14:51;;;;;;;3.20;2.90;;;;;;;;;;5035445;28;20564;-60
2021/10/07 02:17:18;;;;;;;3.35;3.05;;;;;;;;;;5035318;28;20523;-60
2021/10/07 02:19:45;;;;;;;3.27;2.60;;;;;;;;;;5034986;28;20207;-60
2021/10/07 02:22:13;;;;;;;3.23;2.43;;;;;;;;;;5034936;28;20445;-60
2021/10/07 02:24:40;;;;;;;5.87;3.03;;;;;;;;;;5035146;28;20437;-60
2021/10/07 02:27:07;;;;;;;3.93;2.90;;;;;;;;;;5034766;28;20468;-61
2021/10/07 02:29:37;;;;;;;3.40;3.10;;;;;;;;;;5034830;28;20811;-60
2021/10/07 02:32:05;;;;;;;3.80;3.00;;;;;;;;;;5035126;28;20848;-60
2021/10/07 02:34:32;;;;;;;3.30;2.43;;;;;;;;;;5035082;28;20480;-60
2021/10/07 02:36:59;;;;;;;3.07;2.53;;;;;;;;;;5034842;28;20969;-60
2021/10/07 02:39:27;;;;;;;3.27;2.97;;;;;;;;;;5034701;28;20457;-60
2021/10/07 02:41:54;;;;;;;4.33;3.20;;;;;;;;;;5035160;28;20452;-60
2021/10/07 02:44:21;;;;;;;2.87;2.67;;;;;;;;;;5035057;28;20449;-60
2021/10/07 02:46:50;;;;;;;3.10;2.67;;;;;;;;;;5039204;28;20441;-61
2021/10/07 02:49:17;;;;;;;3.67;3.10;;;;;;;;;;5057932;28;20456;-61
2021/10/07 02:51:44;;;;;;;5.53;3.57;;;;;;;;;;5057132;28;20449;-61
2021/10/07 02:54:11;;;;;;;4.80;3.53;;;;;;;;;;5052478;28;20526;-60
2021/10/07 02:56:39;;;;;;;3.00;2.50;;;;;;;;;;5034903;28;20502;-61
2021/10/07 02:59:06;;;;;;;4.27;3.60;;;;;;;;;;5034769;28;20487;-60
2021/10/07 03:01:33;;;;;;;6.30;3.20;;;;;;;;;;5034649;28;20449;-60
2021/10/07 03:04:02;;;;;;;3.67;3.30;;;;;;;;;;5034119;28;20441;-60
2021/10/07 03:06:29;;;;;;;4.63;2.70;;;;;;;;;;5034087;28;20852;-60
2021/10/07 03:08:58;;;;;;;3.47;3.17;;;;;;;;;;5034353;28;20531;-59
2021/10/07 03:11:25;;;;;;;5.27;3.17;;;;;;;;;;5033926;28;20820;-60
2021/10/07 03:13:52;;;;;;;6.03;3.27;;;;;;;;;;5033891;28;20535;-61
2021/10/07 03:16:19;;;;;;;4.10;3.63;;;;;;;;;;5034317;28;20445;-60
2021/10/07 03:18:47;;;;;;;3.77;2.87;;;;;;;;;;5033853;28;20473;-61
2021/10/07 03:21:15;;;;;;;4.43;2.60;;;;;;;;;;5033989;28;20437;-60
2021/10/07 03:23:42;;;;;;;3.83;3.00;;;;;;;;;;5033946;28;20445;-61
2021/10/07 03:26:10;;;;;;;3.35;3.00;;;;;;;;;;5033875;28;20451;-60
2021/10/07 03:28:37;;;;;;;2.90;2.23;;;;;;;;;;5033756;28;20272;-60
2021/10/07 03:31:04;;;;;;;6.10;3.57;;;;;;;;;;5033631;28;20937;-61
2021/10/07 03:33:31;;;;;;;7.43;3.00;;;;;;;;;;5033830;28;20440;-60
2021/10/07 03:35:59;;;;;;;3.70;3.13;;;;;;;;;;5033834;28;20791;-59
2021/10/07 03:38:29;;;;;;;4.13;2.63;;;;;;;;;;5033403;28;20469;-61
2021/10/07 03:40:57;;;;;;;3.90;3.27;;;;;;;;;;5034493;28;20445;-60
2021/10/07 03:43:24;;;;;;;4.23;3.23;;;;;;;;;;5033734;28;20520;-61
2021/10/07 03:45:51;;;;;;;4.73;3.10;;;;;;;;;;5033804;28;20498;-61
2021/10/07 03:48:18;;;;;;;3.60;3.17;;;;;;;;;;5033439;28;20484;-61
2021/10/07 03:50:46;;;;;;;4.03;3.60;;;;;;;;;;5033777;28;20991;-61
2021/10/07 03:53:13;;;;;;;4.27;3.00;;;;;;;;;;5033655;28;20444;-62
2021/10/07 03:55:41;;;;;;;4.57;3.40;;;;;;;;;;5033924;28;20502;-60
2021/10/07 03:58:09;;;;;;;4.40;3.37;;;;;;;;;;5033365;28;20473;-61
2021/10/07 04:00:36;;;;;;;3.63;3.33;;;;;;;;;;5034641;28;20495;-59
2021/10/07 04:03:03;;;;;;;6.60;4.10;;;;;;;;;;5033413;28;20444;-60
2021/10/07 04:08:40;;;;;;;10.60;3.20;;;;;;;;;;5091553;27;20941;-61
2021/10/07 04:11:07;;;;;;;3.70;3.23;;;;;;;;;;5091769;28;20447;-59
2021/10/07 04:13:34;;;;;;;8.57;4.10;;;;;;;;;;5091692;28;20860;-61
2021/10/07 04:16:02;;;;;;;4.27;3.73;;;;;;;;;;5091233;28;20446;-61
2021/10/07 04:18:29;;;;;;;5.63;3.73;;;;;;;;;;5091828;28;20515;-61
2021/10/07 04:20:56;;;;;;;4.93;3.20;;;;;;;;;;5091638;28;20496;-60
2021/10/07 04:23:23;;;;;;;3.90;3.53;;;;;;;;;;5091578;28;20516;-61
2021/10/07 04:25:52;;;;;;;5.60;3.93;;;;;;;;;;5091487;28;20438;-60
2021/10/07 04:28:19;;;;;;;4.03;3.63;;;;;;;;;;5091750;28;20486;-63
2021/10/07 04:30:46;;;;;;;4.50;4.10;;;;;;;;;;5091747;28;20492;-60
2021/10/07 04:33:14;;;;;;;5.90;4.40;;;;;;;;;;5091217;28;20443;-60
2021/10/07 04:35:41;;;;;;;5.50;4.10;;;;;;;;;;5091364;28;20953;-60
2021/10/07 04:38:09;;;;;;;4.37;3.97;;;;;;;;;;5091086;28;20966;-61
2021/10/07 04:40:36;;;;;;;7.17;6.47;;;;;;;;;;5091571;28;20447;-60
2021/10/07 04:43:05;;;;;;;6.63;4.50;;;;;;;;;;5105609;28;20450;-59
2021/10/07 04:45:32;;;;;;;5.73;4.00;;;;;;;;;;5091812;28;20499;-61
2021/10/07 04:47:59;;;;;;;5.30;4.60;;;;;;;;;;5091065;28;20508;-61
2021/10/07 04:50:27;;;;;;;5.37;4.13;;;;;;;;;;5090901;28;20564;-60
2021/10/07 04:52:54;;;;;;;4.40;4.00;;;;;;;;;;5090718;28;20453;-59
2021/10/07 04:55:21;;;;;;;4.70;4.33;;;;;;;;;;5090568;28;20638;-60
2021/10/07 04:57:48;;;;;;;4.50;4.10;;;;;;;;;;5091017;28;20532;-61
2021/10/07 05:00:17;;;;;;;4.70;4.30;;;;;;;;;;5091013;28;20934;-59
2021/10/07 05:02:46;;;;;;;4.20;3.80;;;;;;;;;;5091088;28;20446;-61
2021/10/07 05:05:13;;;;;;;4.97;4.07;;;;;;;;;;5090389;28;20450;-59
2021/10/07 05:07:41;;;;;;;5.97;4.27;;;;;;;;;;5090183;28;20911;-61
2021/10/07 05:10:09;;;;;;;7.70;3.63;;;;;;;;;;5090810;28;20534;-60
2021/10/07 05:12:38;;;;;;;7.17;3.90;;;;;;;;;;5090573;28;20542;-60
2021/10/07 05:15:06;;;;;;;4.50;4.10;;;;;;;;;;5090239;28;20537;-59
2021/10/07 05:17:35;;;;;;;4.63;3.90;;;;;;;;;;5090255;28;20539;-60
2021/10/07 05:20:02;;;;;;;6.30;4.50;;;;;;;;;;5076457;28;20443;-61
2021/10/07 05:22:29;;;;;;;3.97;3.67;;;;;;;;;;5076672;28;20927;-61
2021/10/07 05:24:56;;;;;;;5.23;3.87;;;;;;;;;;5077670;28;20451;-61
2021/10/07 05:27:23;;;;;;;7.77;4.67;;;;;;;;;;5078561;28;20572;-61
2021/10/07 05:29:51;;;;;;;4.37;3.93;;;;;;;;;;5077357;28;20447;-60
2021/10/07 05:32:18;;;;;;;7.67;4.63;;;;;;;;;;5078847;28;20444;-61
2021/10/07 05:34:47;;;;;;;6.37;4.27;;;;;;;;;;5078600;28;20472;-59
2021/10/07 05:37:14;;;;;;;6.30;4.40;;;;;;;;;;5077841;28;20490;-61
2021/10/07 05:39:41;;;;;;;4.83;4.20;;;;;;;;;;5077941;28;20850;-59
2021/10/07 05:42:09;;;;;;;5.37;4.40;;;;;;;;;;5078895;28;20849;-60
2021/10/07 05:44:36;;;;;;;4.87;4.43;;;;;;;;;;5077571;28;20450;-60
2021/10/07 05:47:04;;;;;;;4.50;3.97;;;;;;;;;;5077126;28;20487;-59
2021/10/07 05:49:31;;;;;;;7.32;5.07;;;;;;;;;;5077772;28;20508;-61
2021/10/07 05:52:00;;;;;;;4.47;4.03;;;;;;;;;;5077100;28;20611;-60
2021/10/07 05:54:27;;;;;;;6.80;4.77;;;;;;;;;;5076792;28;20447;-61
2021/10/07 05:56:54;;;;;;;7.60;4.77;;;;;;;;;;5075615;28;20443;-60
2021/10/07 05:59:21;;;;;;;6.50;4.40;;;;;;;;;;5076237;28;20512;-61
2021/10/07 06:01:49;;;;;;;6.03;5.07;;;;;;;;;;5076469;28;20455;-60
2021/10/07 06:04:16;;;;;;;7.70;5.37;;;;;;;;;;5076133;28;20450;-59
2021/10/07 06:06:45;;;;;;;6.10;4.50;;;;;;;;;;5075693;28;20458;-60
2021/10/07 06:09:14;;;;;;;7.20;4.60;;;;;;;;;;5076380;28;20416;-60
2021/10/07 06:11:41;;;;;;;5.40;4.90;;;;;;;;;;5075914;28;20447;-58
2021/10/07 06:14:09;;;;;;;6.20;5.60;;;;;;;;;;5075876;28;20488;-60
2021/10/07 06:16:39;;;;;;;6.67;5.10;;;;;;;;;;5075936;28;20446;-61
2021/10/07 06:19:09;;;;;;;6.73;4.60;;;;;;;;;;5075952;28;20814;-59
2021/10/07 06:21:36;;;;;;;7.60;4.53;;;;;;;;;;5077003;28;20826;-61
2021/10/07 06:24:03;;;;;;;9.00;4.60;;;;;;;;;;5081415;28;20443;-61
2021/10/07 06:26:32;;;;;;;8.90;5.17;;;;;;;;;;5081463;28;20440;-61
2021/10/07 06:28:59;;;;;;;6.10;4.93;;;;;;;;;;5081281;28;20592;-62
2021/10/07 06:31:26;;;;;;;8.10;5.30;;;;;;;;;;5076932;28;20946;-61
2021/10/07 06:33:54;;;;;;;6.77;5.80;;;;;;;;;;5075289;28;20505;-60
2021/10/07 06:36:21;;;;;;;6.03;5.43;;;;;;;;;;5075430;28;20493;-61
2021/10/07 06:38:48;;;;;;;6.70;5.30;;;;;;;;;;5075072;28;20471;-61
2021/10/07 06:41:17;;;;;;;8.55;4.60;;;;;;;;;;5075922;28;20447;-61
2021/10/07 06:43:46;;;;;;;4.80;4.13;;;;;;;;;;5076004;28;20200;-61
2021/10/07 06:46:13;;;;;;;6.00;5.40;;;;;;;;;;5075378;28;20447;-60
2021/10/07 06:48:40;;;;;;;5.80;5.17;;;;;;;;;;5076285;28;20491;-60
2021/10/07 06:51:09;;;;;;;6.07;5.20;;;;;;;;;;5074977;28;20859;-61
2021/10/07 06:53:37;;;;;;;5.80;4.90;;;;;;;;;;5075419;28;20825;-61
2021/10/07 06:56:05;;;;;;;5.83;5.20;;;;;;;;;;5076693;28;20532;-60
2021/10/07 06:58:32;;;;;;;5.60;4.93;;;;;;;;;;5086767;28;20455;-60
2021/10/07 07:01:01;;;;;;;6.17;4.80;;;;;;;;;;5089595;28;20451;-61
2021/10/07 07:03:28;;;;;;;9.00;5.60;;;;;;;;;;5090929;28;20455;-61
2021/10/07 07:05:55;;;;;;;6.97;4.60;;;;;;;;;;5089566;28;20443;-60
2021/10/07 07:08:22;;;;;;;6.47;4.60;;;;;;;;;;5089283;28;20487;-59
2021/10/07 07:10:50;;;;;;;7.37;5.13;;;;;;;;;;5088896;28;20439;-60
2021/10/07 07:13:17;;;;;;;7.27;4.83;;;;;;;;;;5076440;28;20505;-61
2021/10/07 07:15:44;;;;;;;6.53;4.70;;;;;;;;;;5074558;28;20538;-58
2021/10/07 07:18:13;;;;;;;10.13;4.33;;;;;;;;;;5074286;28;20463;-61
2021/10/07 07:20:40;;;;;;;5.70;5.10;;;;;;;;;;5074486;28;20454;-60
2021/10/07 07:23:10;;;;;;;7.80;4.93;;;;;;;;;;5074426;28;20448;-60
2021/10/07 07:25:37;;;;;;;6.60;5.53;;;;;;;;;;5074068;28;20479;-61
2021/10/07 07:28:04;;;;;;;6.90;5.00;;;;;;;;;;5074247;28;20479;-61
2021/10/07 07:30:31;;;;;;;8.23;4.67;;;;;;;;;;5074443;28;20439;-60
2021/10/07 07:32:59;;;;;;;7.07;5.00;;;;;;;;;;5076999;28;20443;-61
2021/10/07 07:35:31;;;;;;;8.37;6.07;;;;;;;;;;5074181;28;20942;-61
2021/10/07 07:37:58;;;;;;;6.83;6.03;;;;;;;;;;5074066;28;21010;-61
2021/10/07 07:40:25;;;;;;;6.03;5.43;;;;;;;;;;5074000;28;20447;-60
2021/10/07 07:42:52;;;;;;;5.40;4.90;;;;;;;;;;5074105;28;20927;-60
2021/10/07 07:45:20;;;;;;;7.57;5.70;;;;;;;;;;5074383;28;20868;-60
2021/10/07 07:47:47;;;;;;;8.77;5.30;;;;;;;;;;5074681;28;20648;-59
2021/10/07 07:50:18;;;;;;;6.50;5.23;;;;;;;;;;5074363;28;20496;-60
2021/10/07 07:52:47;;;;;;;7.37;5.70;;;;;;;;;;5074234;28;20462;-61
2021/10/07 07:55:15;;;;;;;7.03;5.30;;;;;;;;;;5074099;28;20451;-60
2021/10/07 07:57:42;;;;;;;7.63;6.00;;;;;;;;;;5073779;28;20513;-59
2021/10/07 08:00:10;;;;;;;8.40;5.10;;;;;;;;;;5074312;28;20504;-61
2021/10/07 08:02:37;;;;;;;8.90;5.20;;;;;;;;;;5074456;28;20800;-61
2021/10/07 08:05:04;;;;;;;6.00;5.40;;;;;;;;;;5073779;28;20947;-60
2021/10/07 08:07:32;;;;;;;7.90;5.93;;;;;;;;;;5073957;28;20482;-60
2021/10/07 08:10:00;;;;;;;6.90;5.73;;;;;;;;;;5074030;28;20455;-60
2021/10/07 08:12:32;;;;;;;8.37;5.20;;;;;;;;;;5074594;28;20451;-60
2021/10/07 08:14:59;;;;;;;7.53;5.03;;;;;;;;;;5074525;28;20442;-61
2021/10/07 08:17:27;;;;;;;6.37;5.33;;;;;;;;;;5073831;28;20979;-60
2021/10/07 08:19:54;;;;;;;7.37;6.47;;;;;;;;;;5073933;28;20435;-60
2021/10/07 08:22:22;;;;;;;6.50;5.07;;;;;;;;;;5074352;28;20447;-61
2021/10/07 08:24:49;;;;;;;6.50;5.90;;;;;;;;;;5074264;28;20453;-61
2021/10/07 08:27:19;;;;;;;8.47;5.80;;;;;;;;;;5075028;28;20471;-61
2021/10/07 08:29:46;;;;;;;7.60;6.50;;;;;;;;;;5074957;28;20475;-61
2021/10/07 08:32:13;;;;;;;5.50;5.00;;;;;;;;;;5074024;28;20856;-60
2021/10/07 08:34:41;;;;;;;7.60;6.40;;;;;;;;;;5073729;28;20439;-61
2021/10/07 08:37:08;;;;;;;6.17;5.50;;;;;;;;;;5073962;28;20455;-60
2021/10/07 08:39:35;;;;;;;10.03;5.03;;;;;;;;;;5073499;28;20443;-61
2021/10/07 08:42:02;;;;;;;7.37;5.30;;;;;;;;;;5073654;28;20447;-61
2021/10/07 08:44:31;;;;;;;7.10;5.03;;;;;;;;;;5073674;28;20788;-61
2021/10/07 08:46:59;;;;;;;8.50;6.00;;;;;;;;;;5073469;28;20497;-61
2021/10/07 08:49:28;;;;;;;5.53;4.97;;;;;;;;;;5073524;28;20475;-61
2021/10/07 08:51:56;;;;;;;10.70;6.33;;;;;;;;;;5073257;28;20447;-60
2021/10/07 08:54:23;;;;;;;10.17;5.77;;;;;;;;;;5075202;28;20504;-62
2021/10/07 08:56:51;;;;;;;7.17;4.63;;;;;;;;;;5077021;28;20575;-61
2021/10/07 08:59:19;;;;;;;6.47;5.40;;;;;;;;;;5077101;28;20490;-60
2021/10/07 09:01:49;;;;;;;5.03;4.50;;;;;;;;;;5076854;28;20494;-62
2021/10/07 09:04:17;;;;;;;8.33;4.80;;;;;;;;;;5076796;28;20538;-60
2021/10/07 09:06:46;;;;;;;6.90;5.20;;;;;;;;;;5077147;28;20459;-61
2021/10/07 09:09:14;;;;;;;5.87;4.80;;;;;;;;;;5078194;28;20586;-63
2021/10/07 09:11:41;;;;;;;9.40;6.10;;;;;;;;;;5076965;28;20980;-61
2021/10/07 09:14:09;;;;;;;7.83;5.63;;;;;;;;;;5077226;28;20453;-60
2021/10/07 09:16:43;;;;;;;6.10;4.87;;;;;;;;;;5078319;28;20451;-61
2021/10/07 09:19:16;;;;;;;9.60;6.07;;;;;;;;;;5079482;28;20469;-60
2021/10/07 09:21:43;;;;;;;6.60;4.93;;;;;;;;;;5076737;28;20443;-60
2021/10/07 09:24:29;;;;;;;7.50;5.50;;;;;;;;;;5077063;28;20451;-60
2021/10/07 09:26:59;;;;;;;6.03;5.27;;;;;;;;;;5076391;28;20455;-59
2021/10/07 09:29:34;;;;;;;5.60;4.93;;;;;;;;;;5076492;28;20479;-62
2021/10/07 09:32:01;;;;;;;6.60;4.40;;;;;;;;;;5076871;28;20443;-59
2021/10/07 09:34:40;;;;;;;7.50;4.77;;;;;;;;;;5076842;28;20450;-60
2021/10/07 09:37:20;;;;;;;4.93;4.53;;;;;;;;;;5076302;28;20520;-62
2021/10/07 09:39:49;;;;;;;4.33;3.70;;;;;;;;;;5076063;28;20419;-60
2021/10/07 09:42:20;;;;;;;4.23;3.90;;;;;;;;;;5076288;28;20443;-61
2021/10/07 09:45:01;;;;;;;5.90;4.53;;;;;;;;;;5076312;28;20446;-61
2021/10/07 09:47:29;;;;;;;6.60;4.60;;;;;;;;;;5076027;28;20472;-60
2021/10/07 09:50:07;;;;;;;8.60;5.00;;;;;;;;;;5076136;28;20511;-61
2021/10/07 09:52:36;;;;;;;5.13;4.63;;;;;;;;;;5075810;28;20482;-61
2021/10/07 09:55:08;;;;;;;6.40;4.10;;;;;;;;;;5075463;28;20562;-61
2021/10/07 09:57:36;;;;;;;4.00;3.37;;;;;;;;;;5075887;28;20845;-61
2021/10/07 10:00:05;;;;;;;5.30;3.93;;;;;;;;;;5075637;28;21122;-60
2021/10/07 10:02:32;;;;;;;4.30;3.73;;;;;;;;;;5076306;28;20451;-61
2021/10/07 10:05:01;;;;;;;4.33;3.80;;;;;;;;;;5075510;28;20437;-60
2021/10/07 10:07:28;;;;;;;6.63;4.17;;;;;;;;;;5075234;28;20486;-61
2021/10/07 10:09:56;;;;;;;6.70;5.50;;;;;;;;;;5075516;28;20475;-61
2021/10/07 10:12:24;;;;;;;4.30;3.90;;;;;;;;;;5075829;28;20509;-61
2021/10/07 10:14:53;;;;;;;5.40;4.40;;;;;;;;;;5075476;28;20447;-61
2021/10/07 10:17:22;;;;;;;5.13;4.63;;;;;;;;;;5075926;28;20471;-60
2021/10/07 10:19:49;;;;;;;5.77;4.97;;;;;;;;;;5075586;28;20451;-59
2021/10/07 10:22:18;;;;;;;6.93;4.07;;;;;;;;;;5074720;28;20514;-61
2021/10/07 10:24:47;;;;;;;4.93;4.10;;;;;;;;;;5075102;28;20449;-61
2021/10/07 10:27:14;;;;;;;5.40;3.67;;;;;;;;;;5075608;28;20458;-60
2021/10/07 10:29:41;;;;;;;5.50;3.57;;;;;;;;;;5075959;28;20480;-61
2021/10/07 10:32:12;;;;;;;4.30;3.90;;;;;;;;;;5076100;28;20438;-61
2021/10/07 10:34:41;;;;;;;4.80;4.00;;;;;;;;;;5076415;28;20476;-62
2021/10/07 10:37:08;;;;;;;4.30;3.90;;;;;;;;;;5076332;28;20481;-62
2021/10/07 10:39:38;;;;;;;3.60;3.30;;;;;;;;;;5075652;28;20500;-60
2021/10/07 10:42:06;;;;;;;5.97;4.23;;;;;;;;;;5075475;28;20453;-60
2021/10/07 10:44:40;;;;;;;5.07;3.90;;;;;;;;;;5074646;28;20507;-61
2021/10/07 10:47:24;;;;;;;3.60;3.00;;;;;;;;;;5075102;28;20469;-61
2021/10/07 10:49:55;;;;;;;3.43;3.13;;;;;;;;;;5074995;28;20903;-59
2021/10/07 10:52:25;;;;;;;3.03;2.80;;;;;;;;;;5074858;28;20527;-60
2021/10/07 10:54:56;;;;;;;4.50;2.87;;;;;;;;;;5074654;28;20495;-60
2021/10/07 10:57:28;;;;;;;4.00;3.40;;;;;;;;;;5074369;28;20466;-59
2021/10/07 11:00:22;;;;;;;3.17;2.87;;;;;;;;;;5074335;28;20445;-60
2021/10/07 11:02:51;;;;;;;3.40;2.67;;;;;;;;;;5060572;28;20454;-61
2021/10/07 11:05:19;;;;;;;4.40;3.70;;;;;;;;;;5074256;28;20489;-59
2021/10/07 11:07:47;;;;;;;4.50;3.10;;;;;;;;;;5073826;28;20484;-59
2021/10/07 11:10:18;;;;;;;3.40;3.10;;;;;;;;;;5074412;28;20830;-61
2021/10/07 11:12:50;;;;;;;4.40;3.57;;;;;;;;;;5074047;28;20433;-60
2021/10/07 11:15:18;;;;;;;3.53;3.10;;;;;;;;;;5073803;28;20448;-60
2021/10/07 11:17:46;;;;;;;5.30;3.13;;;;;;;;;;5074119;28;20870;-60
2021/10/07 11:20:14;;;;;;;3.77;2.93;;;;;;;;;;5073512;28;20510;-61
2021/10/07 11:22:41;;;;;;;3.43;3.07;;;;;;;;;;5073826;28;20517;-60
2021/10/07 11:25:10;;;;;;;4.00;3.17;;;;;;;;;;5073622;28;20451;-60
2021/10/07 11:27:40;;;;;;;4.03;2.90;;;;;;;;;;5073604;28;20477;-60
2021/10/07 11:30:09;;;;;;;3.23;2.97;;;;;;;;;;5073877;28;20468;-61
2021/10/07 11:32:36;;;;;;;3.73;3.33;;;;;;;;;;5073724;28;20550;-61
2021/10/07 11:35:06;;;;;;;4.93;3.40;;;;;;;;;;5073690;28;20450;-60
2021/10/07 11:37:47;;;;;;;4.90;2.70;;;;;;;;;;5073120;28;20473;-60
2021/10/07 11:40:23;;;;;;;9.77;6.07;;;;;;;;;;5073429;28;20449;-61
2021/10/07 11:42:52;;;;;;;3.03;2.50;;;;;;;;;;5074455;28;20464;-60
2021/10/07 11:45:20;;;;;;;3.77;2.87;;;;;;;;;;5073540;28;20458;-61
2021/10/07 11:47:47;;;;;;;6.33;4.90;;;;;;;;;;5073042;28;21007;-61
2021/10/07 11:50:15;;;;;;;5.30;4.60;;;;;;;;;;5073527;28;20475;-60
2021/10/07 11:52:42;;;;;;;6.37;4.20;;;;;;;;;;5073622;28;20454;-61
2021/10/07 11:55:12;;;;;;;5.90;3.13;;;;;;;;;;5073333;28;20443;-61
2021/10/07 11:57:46;;;;;;;5.57;3.40;;;;;;;;;;5073346;28;20504;-60
2021/10/07 12:00:15;;;;;;;6.53;3.13;;;;;;;;;;5073787;28;20841;-59
2021/10/07 12:02:42;;;;;;;3.33;3.00;;;;;;;;;;5073232;28;20912;-60
2021/10/07 12:05:16;;;;;;;3.90;3.53;;;;;;;;;;5073321;28;20503;-60
2021/10/07 12:07:43;;;;;;;3.03;2.77;;;;;;;;;;5073221;28;20577;-60
2021/10/07 12:10:10;;;;;;;3.20;2.80;;;;;;;;;;5074007;28;20481;-60
2021/10/07 12:12:38;;;;;;;4.43;2.80;;;;;;;;;;5073296;28;20452;-59
2021/10/07 12:15:05;;;;;;;2.73;2.50;;;;;;;;;;5073385;28;20445;-60
2021/10/07 12:17:34;;;;;;;3.90;2.70;;;;;;;;;;5073330;28;20546;-60
2021/10/07 12:20:01;;;;;;;4.30;3.40;;;;;;;;;;5073585;28;20472;-60
2021/10/07 12:22:29;;;;;;;3.87;3.00;;;;;;;;;;5074099;28;20450;-60
2021/10/07 12:25:02;;;;;;;3.60;3.30;;;;;;;;;;5074031;28;20512;-59
2021/10/07 12:27:34;;;;;;;4.30;4.00;;;;;;;;;;5074234;28;20937;-61
2021/10/07 12:30:05;;;;;;;4.17;2.90;;;;;;;;;;5077975;28;20522;-62
2021/10/07 12:32:33;;;;;;;3.70;2.20;;;;;;;;;;5078263;28;20946;-61
2021/10/07 12:35:03;;;;;;;4.70;3.77;;;;;;;;;;5078137;28;20442;-60
2021/10/07 12:37:30;;;;;;;4.23;2.90;;;;;;;;;;5077718;28;20464;-60
2021/10/07 12:39:59;;;;;;;3.33;3.03;;;;;;;;;;5079142;28;20441;-61
2021/10/07 12:42:27;;;;;;;5.10;3.13;;;;;;;;;;5078833;28;20456;-60
2021/10/07 12:44:56;;;;;;;5.00;3.50;;;;;;;;;;5078576;28;20449;-61
2021/10/07 12:47:31;;;;;;;4.07;2.67;;;;;;;;;;5078743;28;20470;-60
2021/10/07 12:50:00;;;;;;;3.07;2.70;;;;;;;;;;5078113;28;20477;-61
2021/10/07 12:52:29;;;;;;;4.00;2.67;;;;;;;;;;5077622;28;20504;-61
2021/10/07 12:54:57;;;;;;;3.00;2.60;;;;;;;;;;5078511;28;20493;-60
2021/10/07 12:57:37;;;;;;;2.30;2.10;;;;;;;;;;5077497;28;20933;-60
2021/10/07 13:00:05;;;;;;;2.70;2.50;;;;;;;;;;5078695;28;20426;-61
2021/10/07 13:02:34;;;;;;;3.67;2.40;;;;;;;;;;5077519;28;20448;-59
2021/10/07 13:05:13;;;;;;;2.50;2.30;;;;;;;;;;5078923;28;20444;-62
2021/10/07 13:07:40;;;;;;;4.20;2.47;;;;;;;;;;5077917;28;20502;-60
2021/10/07 13:10:08;;;;;;;2.97;2.60;;;;;;;;;;5077494;28;20600;-61
2021/10/07 13:12:35;;;;;;;3.80;2.07;;;;;;;;;;5077472;28;20498;-61
2021/10/07 13:15:03;;;;;;;4.50;2.43;;;;;;;;;;5077494;28;20942;-60
2021/10/07 13:17:30;;;;;;;3.40;2.47;;;;;;;;;;5076805;28;20522;-60
2021/10/07 13:19:57;;;;;;;2.07;1.70;;;;;;;;;;5077605;28;20447;-60
2021/10/07 13:22:26;;;;;;;1.90;1.67;;;;;;;;;;5077970;28;20450;-60
2021/10/07 13:24:55;;;;;;;4.77;2.10;;;;;;;;;;5078461;28;20450;-60
2021/10/07 13:27:24;;;;;;;4.13;2.30;;;;;;;;;;5077766;28;20463;-59
2021/10/07 13:29:52;;;;;;;2.23;2.03;;;;;;;;;;5078578;28;20570;-61
2021/10/07 13:32:19;;;;;;;2.33;2.13;;;;;;;;;;5076982;28;20494;-61
2021/10/07 13:34:46;;;;;;;2.10;1.93;;;;;;;;;;5075817;28;20856;-59
2021/10/07 13:37:14;;;;;;;3.80;2.27;;;;;;;;;;5076420;28;20528;-61
2021/10/07 13:39:43;;;;;;;2.20;2.00;;;;;;;;;;5076076;28;20512;-60
2021/10/07 13:42:11;;;;;;;2.07;1.87;;;;;;;;;;5076487;28;20446;-60
2021/10/07 13:44:38;;;;;;;1.63;1.53;;;;;;;;;;5076128;28;20502;-59
2021/10/07 13:47:05;;;;;;;2.33;1.60;;;;;;;;;;5076064;28;20468;-61
2021/10/07 13:49:33;;;;;;;1.97;1.50;;;;;;;;;;5075929;28;20478;-61
2021/10/07 13:52:00;;;;;;;2.83;1.70;;;;;;;;;;5076015;28;20501;-58
2021/10/07 13:54:27;;;;;;;1.53;1.17;;;;;;;;;;5075772;28;20449;-59
2021/10/07 13:56:57;;;;;;;1.40;1.30;;;;;;;;;;5075819;28;20442;-60
2021/10/07 13:59:24;;;;;;;1.77;1.40;;;;;;;;;;5076247;28;20447;-60
2021/10/07 14:01:51;;;;;;;1.73;1.63;;;;;;;;;;5076082;28;20854;-60
2021/10/07 14:04:19;;;;;;;2.00;1.80;;;;;;;;;;5075796;28;20476;-60
2021/10/07 14:06:46;;;;;;;1.73;1.63;;;;;;;;;;5076524;28;20451;-60
2021/10/07 14:09:13;;;;;;;1.90;1.70;;;;;;;;;;5076246;28;20479;-61
2021/10/07 14:11:40;;;;;;;2.40;1.80;;;;;;;;;;5075096;28;20480;-60
2021/10/07 14:14:09;;;;;;;3.10;1.70;;;;;;;;;;5075170;28;20454;-61
2021/10/07 14:16:36;;;;;;;3.73;2.07;;;;;;;;;;5075520;28;20469;-61
2021/10/07 14:19:04;;;;;;;1.90;1.70;;;;;;;;;;5074881;28;20477;-60
2021/10/07 14:21:31;;;;;;;2.93;1.73;;;;;;;;;;5075399;28;20435;-61
2021/10/07 14:23:58;;;;;;;1.80;1.30;;;;;;;;;;5075658;28;20447;-61
2021/10/07 14:26:25;;;;;;;1.70;1.57;;;;;;;;;;5075694;28;20454;-61
2021/10/07 14:28:53;;;;;;;1.90;1.70;;;;;;;;;;5075606;28;20545;-59
2021/10/07 14:31:21;;;;;;;3.37;1.33;;;;;;;;;;5075639;28;20485;-61
2021/10/07 14:33:49;;;;;;;2.70;1.70;;;;;;;;;;5075655;28;20470;-62
2021/10/07 14:36:16;;;;;;;1.77;1.30;;;;;;;;;;5075259;28;20506;-62
2021/10/07 14:38:43;;;;;;;2.73;1.60;;;;;;;;;;5074796;28;20978;-61
2021/10/07 14:41:11;;;;;;;1.97;1.57;;;;;;;;;;5074402;28;20444;-61
2021/10/07 14:43:38;;;;;;;1.93;1.70;;;;;;;;;;5074695;28;20462;-61
2021/10/07 14:46:06;;;;;;;2.10;1.43;;;;;;;;;;5076054;28;20447;-60
2021/10/07 14:48:34;;;;;;;2.60;1.60;;;;;;;;;;5074840;28;20472;-60
2021/10/07 14:51:02;;;;;;;2.90;1.40;;;;;;;;;;5074434;28;20543;-62
2021/10/07 14:53:29;;;;;;;2.13;1.47;;;;;;;;;;5075665;28;20545;-59
2021/10/07 14:55:57;;;;;;;2.07;1.70;;;;;;;;;;5076086;28;20458;-60